Terminal Aerodrome Forecast
Issued by NWS Raleigh/Durham, NC

Home | Current Version | Previous Version | Text Only | Print | Product List | Glossary On
Versions: 1 2 3 4 5 6 7 8 9 10 11 12 13 14 15 16 17 18 19 20 21 22 23 24 25 26 27 28 29 30 31 32 33 34 35 36
675
FTUS42 KRAH 202327
TAFFAY
TAF
KFAY 202327Z 2100/2124 02012KT P6SM -RA SCT010 OVC018
      TEMPO 2100/2104 2SM RA BR OVC008
     FM210500 35007KT 2SM -RADZ BR OVC003 WS016/10035KT
     FM210900 31007KT 3SM -DZ BR OVC003
     FM211300 29008KT P6SM BKN008
     FM211500 27008KT P6SM SCT010 BKN035
     FM212000 25011KT P6SM OVC050=

USA.gov is the U.S. government's official web portal to all federal, state and local government web resources and services.